createdAt,value
2023-01-01T00:00:03.088Z,33.17
2023-01-01T00:02:36.423Z,31.23
2023-01-01T00:05:04.937Z,32.93
2023-01-01T00:07:31.623Z,31.30
2023-01-01T00:10:20.458Z,29.90
2023-01-01T00:12:48.155Z,26.90
2023-01-01T00:15:18.124Z,26.33
2023-01-01T00:17:44.751Z,25.23
2023-01-01T00:20:13.046Z,23.33
2023-01-01T00:22:56.842Z,21.70
2023-01-01T00:25:24.138Z,23.43
2023-01-01T00:28:01.009Z,20.87
2023-01-01T00:30:27.657Z,19.80
2023-01-01T00:32:56.287Z,18.63
2023-01-01T00:35:27.008Z,15.50
2023-01-01T00:37:55.116Z,13.47
2023-01-01T00:40:22.097Z,11.27
2023-01-01T00:42:48.684Z,12.97
2023-01-01T00:45:20.817Z,11.53
2023-01-01T00:47:48.369Z,10.93
2023-01-01T00:50:15.073Z,10.70
2023-01-01T00:52:41.916Z,10.67
2023-01-01T00:55:09.096Z,8.93
2023-01-01T00:57:35.734Z,10.07
2023-01-01T01:00:02.540Z,9.57
2023-01-01T01:02:29.443Z,9.53
2023-01-01T01:04:56.248Z,9.70
2023-01-01T01:07:25.147Z,9.90
2023-01-01T01:09:51.854Z,9.10
2023-01-01T01:12:21.056Z,8.30
2023-01-01T01:14:47.728Z,8.73
2023-01-01T01:17:14.411Z,8.83
2023-01-01T01:19:41.016Z,8.83
2023-01-01T01:22:09.902Z,8.97
2023-01-01T01:24:36.567Z,8.77
2023-01-01T01:27:03.309Z,8.40
2023-01-01T01:29:29.911Z,7.93
2023-01-01T01:31:56.587Z,9.13
2023-01-01T01:34:27.756Z,8.07
2023-01-01T01:36:55.640Z,7.93
2023-01-01T01:39:22.480Z,8.55
2023-01-01T01:41:49.109Z,8.17
2023-01-01T01:44:49.892Z,8.07
2023-01-01T01:47:42.662Z,6.73
2023-01-01T01:50:19.692Z,6.30
2023-01-01T01:53:04.871Z,6.00
2023-01-01T01:55:34.076Z,5.93
2023-01-01T01:58:01.895Z,5.03
2023-01-01T02:00:28.747Z,5.73
2023-01-01T02:03:02.339Z,5.63
2023-01-01T02:05:30.586Z,5.57
2023-01-01T02:07:58.692Z,6.20
2023-01-01T02:10:26.195Z,6.03
2023-01-01T02:12:52.911Z,4.93
2023-01-01T02:15:21.364Z,5.40
2023-01-01T02:18:02.076Z,5.77
2023-01-01T02:20:48.265Z,5.77
2023-01-01T02:23:26.313Z,5.40
2023-01-01T02:26:10.549Z,5.17
2023-01-01T02:28:58.951Z,5.10
2023-01-01T02:31:31.518Z,5.10
2023-01-01T02:34:03.060Z,5.07
2023-01-01T02:36:32.951Z,4.87
2023-01-01T02:39:02.751Z,4.40
2023-01-01T02:41:39.821Z,5.03
2023-01-01T02:46:33.340Z,4.90
2023-01-01T02:49:04.729Z,4.73
2023-01-01T02:52:04.409Z,4.90
2023-01-01T02:54:45.122Z,4.72
2023-01-01T02:57:29.717Z,5.37
2023-01-01T03:00:40.888Z,4.83
2023-01-01T03:03:28.650Z,4.17
2023-01-01T03:06:27.058Z,4.60
2023-01-01T03:09:16.036Z,4.20
2023-01-01T03:12:02.982Z,4.87
2023-01-01T03:14:41.701Z,4.50
2023-01-01T03:17:21.267Z,4.73
2023-01-01T03:19:49.563Z,4.43
2023-01-01T03:22:17.471Z,4.33
2023-01-01T03:24:58.276Z,4.30
2023-01-01T03:27:41.257Z,4.50
2023-01-01T03:30:11.553Z,4.63
2023-01-01T03:33:03.565Z,4.70
2023-01-01T03:35:47.063Z,4.80
2023-01-01T03:38:20.144Z,5.30
2023-01-01T03:40:51.313Z,4.30
2023-01-01T03:43:26.566Z,4.30
2023-01-01T03:45:54.368Z,4.37
2023-01-01T03:48:21.093Z,4.80
2023-01-01T03:50:58.412Z,4.87
2023-01-01T03:53:43.243Z,4.63
2023-01-01T03:56:49.901Z,4.60
2023-01-01T03:59:22.662Z,4.10
2023-01-01T04:01:53.455Z,4.30
2023-01-01T04:04:20.482Z,4.03
2023-01-01T04:06:47.342Z,4.40
2023-01-01T04:09:17.862Z,5.22
2023-01-01T04:12:01.529Z,4.40
2023-01-01T04:14:29.397Z,4.83
2023-01-01T04:16:57.476Z,4.73
2023-01-01T04:19:24.018Z,4.73
2023-01-01T04:21:50.684Z,4.77
2023-01-01T04:24:17.453Z,4.60
2023-01-01T04:26:44.264Z,4.50
2023-01-01T04:29:10.871Z,4.90
2023-01-01T04:31:37.671Z,4.67
2023-01-01T04:34:04.532Z,5.70
2023-01-01T04:36:31.111Z,5.33
2023-01-01T04:38:57.688Z,6.10
2023-01-01T04:41:24.304Z,6.00
2023-01-01T04:43:50.870Z,6.27
2023-01-01T04:46:21.751Z,6.03
2023-01-01T04:48:48.541Z,4.73
2023-01-01T04:51:16.434Z,5.57
2023-01-01T04:53:43.355Z,4.83
2023-01-01T04:56:13.069Z,4.67
2023-01-01T04:58:41.753Z,4.30
2023-01-01T05:01:14.174Z,4.13
2023-01-01T05:03:40.788Z,3.60
2023-01-01T05:06:10.518Z,3.83
2023-01-01T05:08:39.360Z,3.67
2023-01-01T05:11:18.529Z,3.33
2023-01-01T05:13:47.748Z,3.30
2023-01-01T05:16:18.008Z,3.37
2023-01-01T05:18:45.044Z,2.90
2023-01-01T05:21:14.000Z,3.00
2023-01-01T05:23:40.739Z,2.70
2023-01-01T05:26:14.761Z,2.60
2023-01-01T05:28:42.372Z,2.60
2023-01-01T05:31:13.536Z,2.40
2023-01-01T05:33:41.028Z,3.00
2023-01-01T05:36:09.875Z,2.80
2023-01-01T05:38:36.809Z,2.50
2023-01-01T05:41:08.157Z,2.60
2023-01-01T05:43:35.307Z,2.57
2023-01-01T05:46:04.128Z,2.77
2023-01-01T05:48:32.459Z,2.77
2023-01-01T05:51:13.657Z,2.20
2023-01-01T05:53:40.474Z,2.57
2023-01-01T05:56:07.552Z,2.70
2023-01-01T05:58:35.203Z,2.57
2023-01-01T06:01:13.872Z,2.40
2023-01-01T06:03:41.753Z,2.40
2023-01-01T06:06:11.295Z,2.47
2023-01-01T06:08:38.051Z,2.43
2023-01-01T06:11:07.122Z,2.93
2023-01-01T06:13:34.103Z,2.77
2023-01-01T06:16:02.291Z,2.50
2023-01-01T06:18:34.312Z,2.27
2023-01-01T06:21:15.634Z,2.57
2023-01-01T06:23:42.870Z,2.40
2023-01-01T06:26:18.910Z,2.83
2023-01-01T06:28:46.778Z,3.07
2023-01-01T06:31:16.280Z,3.07
2023-01-01T06:33:43.865Z,2.73
2023-01-01T06:36:12.942Z,2.40
2023-01-01T06:38:41.916Z,3.27
2023-01-01T06:41:12.024Z,2.80
2023-01-01T06:43:39.198Z,3.10
2023-01-01T06:46:19.382Z,2.87
2023-01-01T06:48:48.063Z,2.60
2023-01-01T06:51:20.333Z,2.77
2023-01-01T06:53:48.006Z,3.30
2023-01-01T06:56:16.289Z,2.93
2023-01-01T06:58:43.052Z,3.13
2023-01-01T07:01:14.797Z,2.43
2023-01-01T07:03:42.660Z,2.80
2023-01-01T07:06:10.181Z,2.40
2023-01-01T07:08:37.068Z,2.57
2023-01-01T07:11:04.324Z,2.83
2023-01-01T07:13:31.284Z,2.73
2023-01-01T07:15:58.351Z,3.30
2023-01-01T07:18:26.069Z,3.08
2023-01-01T07:20:58.044Z,3.20
2023-01-01T07:23:25.838Z,2.70
2023-01-01T07:25:53.650Z,3.20
2023-01-01T07:28:21.605Z,2.93
2023-01-01T07:30:49.006Z,2.73
2023-01-01T07:33:18.180Z,3.77
2023-01-01T07:35:45.781Z,3.90
2023-01-01T07:38:13.102Z,3.23
2023-01-01T07:40:40.432Z,3.10
2023-01-01T07:43:07.762Z,3.20
2023-01-01T07:45:35.256Z,3.27
2023-01-01T07:48:02.024Z,3.20
2023-01-01T07:50:31.011Z,3.60
2023-01-01T07:52:57.789Z,4.60
2023-01-01T07:55:24.398Z,3.50
2023-01-01T07:57:51.033Z,4.10
2023-01-01T08:00:21.024Z,3.30
2023-01-01T08:02:48.374Z,3.37
2023-01-01T08:05:15.188Z,3.27
2023-01-01T08:07:46.155Z,3.37
2023-01-01T08:10:12.828Z,3.40
2023-01-01T08:12:39.487Z,3.73
2023-01-01T08:15:06.883Z,3.43
2023-01-01T08:17:33.487Z,3.77
2023-01-01T08:20:00.081Z,3.73
2023-01-01T08:22:26.919Z,3.73
2023-01-01T08:24:53.485Z,4.03
2023-01-01T08:27:20.049Z,3.50
2023-01-01T08:29:46.693Z,3.93
2023-01-01T08:32:13.826Z,3.53
2023-01-01T08:34:40.629Z,3.43
2023-01-01T08:37:13.008Z,3.40
2023-01-01T08:39:39.934Z,3.27
2023-01-01T08:42:12.235Z,3.70
2023-01-01T08:44:39.199Z,4.10
2023-01-01T08:47:05.781Z,3.57
2023-01-01T08:49:32.745Z,4.00
2023-01-01T08:51:59.337Z,4.30
2023-01-01T08:54:25.905Z,3.27
2023-01-01T08:56:52.489Z,3.20
2023-01-01T08:59:19.137Z,3.07
2023-01-01T09:01:45.874Z,3.13
2023-01-01T09:04:15.802Z,2.90
2023-01-01T09:06:42.673Z,2.90
2023-01-01T09:09:09.271Z,3.50
2023-01-01T09:11:36.547Z,3.37
2023-01-01T09:14:03.158Z,3.00
2023-01-01T09:16:29.811Z,3.30
2023-01-01T09:18:56.493Z,3.10
2023-01-01T09:21:23.282Z,2.97
2023-01-01T09:23:49.881Z,3.17
2023-01-01T09:26:16.479Z,3.57
2023-01-01T09:28:43.213Z,2.90
2023-01-01T09:31:09.861Z,3.47
2023-01-01T09:33:36.497Z,3.20
2023-01-01T09:36:22.309Z,3.50
2023-01-01T09:38:52.727Z,3.03
2023-01-01T09:41:46.703Z,3.10
2023-01-01T09:44:35.070Z,3.80
2023-01-01T09:47:05.231Z,3.10
2023-01-01T09:49:35.241Z,3.40
2023-01-01T09:52:05.361Z,3.20
2023-01-01T09:54:42.829Z,3.07
2023-01-01T09:57:19.571Z,3.23
2023-01-01T09:59:46.973Z,5.37
2023-01-01T10:02:51.499Z,8.43
2023-01-01T10:05:42.996Z,5.23
2023-01-01T10:08:31.019Z,3.57
2023-01-01T10:11:09.532Z,3.33
2023-01-01T10:13:42.513Z,3.17
2023-01-01T10:16:25.464Z,2.90
2023-01-01T10:18:56.588Z,3.43
2023-01-01T10:21:36.016Z,3.37
2023-01-01T10:24:11.546Z,3.40
2023-01-01T10:26:41.175Z,3.00
2023-01-01T10:29:22.656Z,3.30
2023-01-01T10:31:49.675Z,3.20
2023-01-01T10:34:28.445Z,2.97
2023-01-01T10:36:57.376Z,3.20
2023-01-01T10:39:24.583Z,2.80
2023-01-01T10:41:51.946Z,3.00
2023-01-01T10:44:33.497Z,3.00
2023-01-01T10:47:10.640Z,3.10
2023-01-01T10:49:55.333Z,3.60
2023-01-01T10:52:47.523Z,3.53
2023-01-01T10:55:23.203Z,3.00
2023-01-01T10:57:49.812Z,2.93
2023-01-01T11:00:29.519Z,3.03
2023-01-01T11:03:21.110Z,2.90
2023-01-01T11:06:17.998Z,2.90
2023-01-01T11:08:50.279Z,2.70
2023-01-01T11:11:28.403Z,2.90
2023-01-01T11:13:58.610Z,2.93
2023-01-01T11:16:26.536Z,3.10
2023-01-01T11:19:01.966Z,2.80
2023-01-01T11:21:28.637Z,3.00
2023-01-01T11:24:12.763Z,3.47
2023-01-01T11:26:41.862Z,3.17
2023-01-01T11:29:20.354Z,2.60
2023-01-01T11:31:47.876Z,2.93
2023-01-01T11:34:33.351Z,2.80
2023-01-01T11:37:12.172Z,2.60
2023-01-01T11:39:42.460Z,3.03
2023-01-01T11:42:09.602Z,2.47
2023-01-01T11:44:44.771Z,2.50
2023-01-01T11:47:30.696Z,2.40
2023-01-01T11:50:00.351Z,2.60
2023-01-01T11:52:36.280Z,2.60
2023-01-01T11:55:10.771Z,2.50
2023-01-01T11:57:39.779Z,2.53
2023-01-01T12:00:13.903Z,2.47
2023-01-01T12:02:43.925Z,2.57
2023-01-01T12:05:23.240Z,2.27
2023-01-01T12:07:51.418Z,2.50
2023-01-01T12:10:21.958Z,2.70
2023-01-01T12:13:00.688Z,2.83
2023-01-01T12:15:33.510Z,3.27
2023-01-01T12:18:04.326Z,2.75
2023-01-01T12:20:34.299Z,2.77
2023-01-01T12:23:03.280Z,2.57
2023-01-01T12:25:36.747Z,3.03
2023-01-01T12:28:12.691Z,2.67
2023-01-01T12:30:40.860Z,2.90
2023-01-01T12:33:17.064Z,2.43
2023-01-01T12:36:02.816Z,2.63
2023-01-01T12:38:36.060Z,2.70
2023-01-01T12:41:03.111Z,3.20
2023-01-01T12:43:48.706Z,2.70
2023-01-01T12:46:25.941Z,2.57
2023-01-01T12:48:59.023Z,2.70
2023-01-01T12:51:45.785Z,2.90
2023-01-01T12:54:24.642Z,2.90
2023-01-01T12:57:10.447Z,3.07
2023-01-01T12:59:39.966Z,2.43
2023-01-01T13:02:24.084Z,2.60
2023-01-01T13:04:53.587Z,2.43
2023-01-01T13:07:27.035Z,2.60
2023-01-01T13:09:54.250Z,2.80
2023-01-01T13:12:22.807Z,2.90
2023-01-01T13:14:50.649Z,2.37
2023-01-01T13:17:27.845Z,2.53
2023-01-01T13:20:15.111Z,2.60
2023-01-01T13:22:44.085Z,2.27
2023-01-01T13:25:11.178Z,2.20
2023-01-01T13:27:56.924Z,2.70
2023-01-01T13:30:36.405Z,2.70
2023-01-01T13:33:32.434Z,3.17
2023-01-01T13:36:08.846Z,2.80
2023-01-01T13:38:46.068Z,2.80
2023-01-01T13:41:28.232Z,3.30
2023-01-01T13:44:15.516Z,2.77
2023-01-01T13:46:51.766Z,3.00
2023-01-01T13:49:32.950Z,2.70
2023-01-01T13:52:08.450Z,2.90
2023-01-01T13:54:54.243Z,2.87
2023-01-01T13:57:36.550Z,2.97
2023-01-01T14:00:12.617Z,2.97
2023-01-01T14:02:48.150Z,2.70
2023-01-01T14:05:21.883Z,2.93
2023-01-01T14:07:53.308Z,2.92
2023-01-01T14:10:27.727Z,2.60
2023-01-01T14:12:56.127Z,2.80
2023-01-01T14:15:30.515Z,2.47
2023-01-01T14:18:00.028Z,2.40
2023-01-01T14:20:46.790Z,2.97
2023-01-01T14:23:18.228Z,2.77
2023-01-01T14:25:45.899Z,2.87
2023-01-01T14:28:16.943Z,2.50
2023-01-01T14:30:45.280Z,2.60
2023-01-01T14:33:22.432Z,2.77
2023-01-01T14:35:56.599Z,2.50
2023-01-01T14:38:24.962Z,3.77
2023-01-01T14:41:00.405Z,2.70
2023-01-01T14:43:27.381Z,3.40
2023-01-01T14:45:54.456Z,2.63
2023-01-01T14:48:21.590Z,2.90
2023-01-01T14:50:50.120Z,2.60
2023-01-01T14:53:20.564Z,2.93
2023-01-01T14:55:49.567Z,2.60
2023-01-01T14:58:17.906Z,2.83
2023-01-01T15:00:45.278Z,2.63
2023-01-01T15:03:14.265Z,2.90
2023-01-01T15:05:42.161Z,2.67
2023-01-01T15:08:18.488Z,2.43
2023-01-01T15:10:45.552Z,2.43
2023-01-01T15:13:18.363Z,3.03
2023-01-01T15:15:46.937Z,3.03
2023-01-01T15:18:32.717Z,3.00
2023-01-01T15:20:59.759Z,3.17
2023-01-01T15:23:26.767Z,2.60
2023-01-01T15:25:53.797Z,3.17
2023-01-01T15:28:21.607Z,3.57
2023-01-01T15:30:55.749Z,3.03
2023-01-01T15:33:23.138Z,3.10
2023-01-01T15:35:51.099Z,3.63
2023-01-01T15:38:21.331Z,3.97
2023-01-01T15:40:53.319Z,3.97
2023-01-01T15:43:31.288Z,4.47
2023-01-01T15:46:12.018Z,4.57
2023-01-01T15:48:47.521Z,4.83
2023-01-01T15:51:15.839Z,3.97
2023-01-01T15:53:59.036Z,3.97
2023-01-01T15:56:30.955Z,3.97
2023-01-01T15:59:08.763Z,3.80
2023-01-01T16:01:37.826Z,4.60
2023-01-01T16:04:09.762Z,4.03
2023-01-01T16:06:44.169Z,4.63
2023-01-01T16:09:13.146Z,4.17
2023-01-01T16:11:40.360Z,4.20
2023-01-01T16:14:07.344Z,4.57
2023-01-01T16:16:34.772Z,3.77
2023-01-01T16:19:01.837Z,4.20
2023-01-01T16:21:30.348Z,3.83
2023-01-01T16:23:57.338Z,4.47
2023-01-01T16:26:24.341Z,4.60
2023-01-01T16:28:51.635Z,4.20
2023-01-01T16:31:20.711Z,4.40
2023-01-01T16:33:49.054Z,4.27
2023-01-01T16:36:16.180Z,4.53
2023-01-01T16:38:43.192Z,3.93
2023-01-01T16:41:14.193Z,4.30
2023-01-01T16:43:41.689Z,4.50
2023-01-01T16:46:13.316Z,4.10
2023-01-01T16:48:40.976Z,4.73
2023-01-01T16:51:14.405Z,5.10
2023-01-01T16:53:41.416Z,4.87
2023-01-01T16:56:09.850Z,5.23
2023-01-01T16:58:55.412Z,5.90
2023-01-01T17:01:24.285Z,5.93
2023-01-01T17:03:51.653Z,5.10
2023-01-01T17:06:19.013Z,4.63
2023-01-01T17:08:46.072Z,4.43
2023-01-01T17:11:15.051Z,4.60
2023-01-01T17:13:42.647Z,4.33
2023-01-01T17:16:10.086Z,5.00
2023-01-01T17:19:13.285Z,4.43
2023-01-01T17:21:24.322Z,4.53
2023-01-01T17:23:51.419Z,4.40
2023-01-01T17:26:20.473Z,4.27
2023-01-01T17:28:48.546Z,4.90
2023-01-01T17:31:16.818Z,4.60
2023-01-01T17:33:44.024Z,4.00
2023-01-01T17:36:11.585Z,3.67
2023-01-01T17:38:38.988Z,4.50
2023-01-01T17:41:06.148Z,3.80
2023-01-01T17:43:34.461Z,4.83
2023-01-01T17:46:08.383Z,3.97
2023-01-01T17:48:35.397Z,4.40
2023-01-01T17:51:02.447Z,4.63
2023-01-01T17:53:29.672Z,4.10
2023-01-01T17:55:56.765Z,4.60
2023-01-01T17:58:23.926Z,4.50
2023-01-01T18:00:51.331Z,4.20
2023-01-01T18:03:19.127Z,4.37
2023-01-01T18:05:46.148Z,3.90
2023-01-01T18:08:13.115Z,4.10
2023-01-01T18:10:40.230Z,3.50
2023-01-01T18:13:07.233Z,3.93
2023-01-01T18:15:36.536Z,4.00
2023-01-01T18:18:04.711Z,4.10
2023-01-01T18:20:31.760Z,3.33
2023-01-01T18:22:58.755Z,3.90
2023-01-01T18:25:25.738Z,3.93
2023-01-01T18:27:57.500Z,5.90
2023-01-01T18:30:25.026Z,5.65
2023-01-01T18:32:53.447Z,5.60
2023-01-01T18:35:20.877Z,5.83
2023-01-01T18:37:47.876Z,5.00
2023-01-01T18:40:16.357Z,4.77
2023-01-01T18:42:50.166Z,4.20
2023-01-01T18:45:18.748Z,4.40
2023-01-01T18:47:46.683Z,3.97
2023-01-01T18:50:16.349Z,4.40
2023-01-01T18:52:43.472Z,4.00
2023-01-01T18:55:10.545Z,4.00
2023-01-01T18:57:37.877Z,3.93
2023-01-01T19:00:25.997Z,4.47
2023-01-01T19:03:01.034Z,4.63
2023-01-01T19:05:28.117Z,3.43
2023-01-01T19:07:57.840Z,2.63
2023-01-01T19:10:25.496Z,2.45
2023-01-01T19:12:54.869Z,2.10
2023-01-01T19:15:22.109Z,2.33
2023-01-01T19:17:49.246Z,2.00
2023-01-01T19:20:17.819Z,2.30
2023-01-01T19:22:45.680Z,1.83
2023-01-01T19:25:31.604Z,2.03
2023-01-01T19:28:05.708Z,1.97
2023-01-01T19:30:32.738Z,2.13
2023-01-01T19:32:59.732Z,2.17
2023-01-01T19:35:26.753Z,2.00
2023-01-01T19:37:53.741Z,1.83
2023-01-01T19:40:20.781Z,1.90
2023-01-01T19:42:47.991Z,2.13
2023-01-01T19:45:15.021Z,1.80
2023-01-01T19:47:43.131Z,2.20
2023-01-01T19:50:10.749Z,2.10
2023-01-01T19:52:37.942Z,2.00
2023-01-01T19:55:05.602Z,1.70
2023-01-01T19:57:32.586Z,1.93
2023-01-01T19:59:59.649Z,1.63
2023-01-01T20:02:45.435Z,1.60
2023-01-01T20:05:13.401Z,1.63
2023-01-01T20:07:40.533Z,1.63
2023-01-01T20:10:07.728Z,1.90
2023-01-01T20:12:34.748Z,1.60
2023-01-01T20:15:01.741Z,2.93
2023-01-01T20:17:30.603Z,2.00
2023-01-01T20:19:58.406Z,1.90
2023-01-01T20:22:25.543Z,1.90
2023-01-01T20:24:52.754Z,1.60
2023-01-01T20:27:24.500Z,2.20
2023-01-01T20:29:51.615Z,2.00
2023-01-01T20:32:18.857Z,1.90
2023-01-01T20:34:45.894Z,1.80
2023-01-01T20:37:31.603Z,1.80
2023-01-01T20:39:58.622Z,1.80
2023-01-01T20:42:27.429Z,1.60
2023-01-01T20:44:54.585Z,1.90
2023-01-01T20:47:21.683Z,2.10
2023-01-01T20:49:48.670Z,2.00
2023-01-01T20:52:15.704Z,1.90
2023-01-01T20:54:42.714Z,1.80
2023-01-01T20:57:09.853Z,1.77
2023-01-01T20:59:38.293Z,1.80
2023-01-01T21:02:06.365Z,1.80
2023-01-01T21:04:38.053Z,1.87
2023-01-01T21:07:09.480Z,1.80
2023-01-01T21:09:36.973Z,2.10
2023-01-01T21:12:04.135Z,1.77
2023-01-01T21:14:31.196Z,1.90
2023-01-01T21:16:58.384Z,1.83
2023-01-01T21:19:27.221Z,2.10
2023-01-01T21:21:56.300Z,1.67
2023-01-01T21:24:23.520Z,1.70
2023-01-01T21:26:52.243Z,1.80
2023-01-01T21:29:21.024Z,1.80
2023-01-01T21:31:51.182Z,2.00
2023-01-01T21:34:32.953Z,1.70
2023-01-01T21:37:02.043Z,1.70
2023-01-01T21:39:29.778Z,1.77
2023-01-01T21:42:01.125Z,1.83
2023-01-01T21:44:28.175Z,1.90
2023-01-01T21:47:01.650Z,1.50
2023-01-01T21:49:36.496Z,1.80
2023-01-01T21:52:04.041Z,1.70
2023-01-01T21:54:36.289Z,1.80
2023-01-01T21:57:13.452Z,1.80
2023-01-01T21:59:42.468Z,1.70
2023-01-01T22:02:09.680Z,2.57
2023-01-01T22:04:44.866Z,2.00
2023-01-01T22:07:56.584Z,1.90
2023-01-01T22:10:15.461Z,1.90
2023-01-01T22:12:43.039Z,1.83
2023-01-01T22:15:28.783Z,1.90
2023-01-01T22:18:13.780Z,1.90
2023-01-01T22:20:42.335Z,2.30
2023-01-01T22:23:24.788Z,2.00
2023-01-01T22:25:52.603Z,1.90
2023-01-01T22:28:24.046Z,2.00
2023-01-01T22:30:54.053Z,2.20
2023-01-01T22:33:30.373Z,2.03
2023-01-01T22:35:57.462Z,1.70
2023-01-01T22:38:29.037Z,2.37
2023-01-01T22:40:56.076Z,1.97
2023-01-01T22:43:27.525Z,2.23
2023-01-01T22:45:54.594Z,2.40
2023-01-01T22:48:30.182Z,2.10
2023-01-01T22:50:58.557Z,2.20
2023-01-01T22:53:25.549Z,1.90
2023-01-01T22:55:52.537Z,1.90
2023-01-01T22:58:19.578Z,2.20
2023-01-01T23:00:46.813Z,2.00
2023-01-01T23:03:13.855Z,2.10
2023-01-01T23:05:40.925Z,2.03
2023-01-01T23:08:08.021Z,2.30
2023-01-01T23:10:35.011Z,2.03
2023-01-01T23:13:22.051Z,2.00
2023-01-01T23:16:02.244Z,2.10
2023-01-01T23:18:33.226Z,2.10
2023-01-01T23:21:10.867Z,2.37
2023-01-01T23:23:38.485Z,2.03
2023-01-01T23:26:06.480Z,2.50
2023-01-01T23:28:33.568Z,2.30
2023-01-01T23:31:01.274Z,2.63
2023-01-01T23:33:29.255Z,1.97
2023-01-01T23:35:56.413Z,2.20
2023-01-01T23:38:23.672Z,2.37
2023-01-01T23:40:50.657Z,2.00
2023-01-01T23:43:17.671Z,2.40
2023-01-01T23:45:44.766Z,2.20
2023-01-01T23:48:11.937Z,2.00
2023-01-01T23:50:39.206Z,2.10
2023-01-01T23:53:06.224Z,2.03
2023-01-01T23:55:33.519Z,2.23
2023-01-01T23:58:00.549Z,2.23
